Time;durP1;ratioP1;P1;durP2;ratioP2;P2;SDS_P1;SDS_P2;PMS_P1;PMS_P2;Temp;Humidity;BMP_temperature;BMP_pressure;BME280_temperature;BME280_humidity;BME280_pressure;Samples;Min_cycle;Max_cycle;Signal;HPM_P1;HPM_P2
2021/10/25 00:02:09;;;;;;;14.75;10.10;;;;;;;-142.75;100.00;77893.31;5009787;28;20054;-67
2021/10/25 00:04:35;;;;;;;18.17;10.70;;;;;;;-142.75;100.00;77885.44;5009675;28;20061;-68
2021/10/25 00:07:01;;;;;;;18.27;10.77;;;;;;;-142.75;100.00;77875.59;5009832;28;20375;-68
2021/10/25 00:09:26;;;;;;;19.13;10.67;;;;;;;-142.75;100.00;77881.50;5009848;28;20495;-68
2021/10/25 00:11:52;;;;;;;16.25;9.98;;;;;;;-142.75;100.00;77873.63;5010301;28;20101;-67
2021/10/25 00:14:17;;;;;;;20.55;10.32;;;;;;;-142.75;100.00;77861.81;5016123;22;20058;-66
2021/10/25 00:16:43;;;;;;;21.20;10.85;;;;;;;-142.75;100.00;77846.06;4987357;28;20377;-68
2021/10/25 00:19:10;;;;;;;16.33;10.10;;;;;;;-142.75;100.00;77853.94;4990043;28;20045;-67
2021/10/25 00:21:35;;;;;;;16.93;9.83;;;;;;;-142.75;100.00;77867.72;4988689;28;20096;-67
2021/10/25 00:24:02;;;;;;;17.85;10.55;;;;;;;-142.75;100.00;77853.94;4989765;28;20507;-67
2021/10/25 00:26:28;;;;;;;15.90;10.70;;;;;;;-142.75;100.00;77844.09;4990120;28;20030;-67
2021/10/25 00:28:53;;;;;;;14.13;9.63;;;;;;;-142.75;100.00;77844.09;4988222;28;20076;-67
2021/10/25 00:31:18;;;;;;;18.17;9.83;;;;;;;-142.75;100.00;77830.31;4991843;28;20487;-68
2021/10/25 00:33:43;;;;;;;18.45;10.13;;;;;;;-142.75;100.00;77830.31;4997486;28;20036;-67
2021/10/25 00:36:10;;;;;;;18.02;9.90;;;;;;;-142.75;100.00;77824.41;5012671;28;20030;-67
2021/10/25 00:38:35;;;;;;;;;;;;;;;-142.75;100.00;77828.34;5012148;28;20472;-69
2021/10/25 00:41:00;;;;;;;17.63;9.43;;;;;;;-142.75;100.00;77820.47;5013340;28;19974;-68
2021/10/25 00:43:26;;;;;;;15.23;9.07;;;;;;;-142.75;100.00;77832.28;5012820;28;20041;-67
2021/10/25 00:45:52;;;;;;;20.17;10.45;;;;;;;-142.75;100.00;77810.63;5011157;28;20136;-68
2021/10/25 00:48:17;;;;;;;18.65;10.73;;;;;;;-142.75;100.00;77810.63;5012878;28;20029;-66
2021/10/25 00:50:42;;;;;;;16.38;10.23;;;;;;;-142.75;100.00;77806.69;5002641;28;20022;-67
2021/10/25 00:53:09;;;;;;;20.38;10.23;;;;;;;-142.75;100.00;77802.75;4993355;28;20034;-67
2021/10/25 00:55:38;;;;;;;18.87;10.23;;;;;;;-142.75;100.00;77796.84;4992951;28;20030;-68
2021/10/25 00:58:05;;;;;;;16.43;10.20;;;;;;;-142.75;100.00;77796.84;4998856;28;20026;-67
2021/10/25 01:00:31;;;;;;;17.07;10.00;;;;;;;-142.75;100.00;77794.88;5012673;28;20021;-67
2021/10/25 01:02:56;;;;;;;15.98;10.60;;;;;;;-142.75;100.00;77794.88;5013342;28;20484;-68
2021/10/25 01:05:21;;;;;;;16.17;10.23;;;;;;;-142.75;100.00;77794.88;5027507;28;20022;-68
2021/10/25 01:07:48;;;;;;;22.75;10.07;;;;;;;-142.75;100.00;77790.94;5012396;28;20033;-67
2021/10/25 01:10:14;;;;;;;13.63;9.23;;;;;;;-142.75;100.00;77794.88;5012659;28;20033;-68
2021/10/25 01:12:40;;;;;;;13.57;8.77;;;;;;;-142.75;100.00;77785.03;5012835;28;20072;-69
2021/10/25 01:15:06;;;;;;;16.90;9.82;;;;;;;-142.75;100.00;77785.03;5011803;28;20018;-67
2021/10/25 01:17:31;;;;;;;;;;;;;;;-142.75;100.00;77787.00;5012819;28;20034;-67
2021/10/25 01:19:58;;;;;;;16.23;9.93;;;;;;;-142.75;100.00;77787.00;5012508;28;19914;-67
2021/10/25 01:22:24;;;;;;;15.18;9.95;;;;;;;-142.75;100.00;77798.81;5012027;28;20030;-67
2021/10/25 01:24:51;;;;;;;21.90;9.85;;;;;;;-142.75;100.00;77783.06;5010568;28;20025;-68
2021/10/25 01:27:17;;;;;;;17.87;9.73;;;;;;;-142.75;100.00;77783.06;5012137;28;20796;-67
2021/10/25 01:29:43;;;;;;;15.67;9.27;;;;;;;-142.75;100.00;77783.06;5011884;28;20025;-67
2021/10/25 01:32:08;;;;;;;14.98;9.45;;;;;;;-142.75;100.00;77779.13;5010961;28;20026;-67
2021/10/25 01:34:34;;;;;;;17.63;10.93;;;;;;;-142.75;100.00;77783.06;5011532;28;20099;-67
2021/10/25 01:37:00;;;;;;;15.43;9.57;;;;;;;-142.75;100.00;77761.41;5012192;28;20534;-69
2021/10/25 01:39:26;;;;;;;19.93;9.40;;;;;;;-142.75;100.00;77792.91;4999682;28;20053;-68
2021/10/25 01:41:51;;;;;;;15.02;9.25;;;;;;;-142.75;100.00;77751.56;4992645;28;20057;-67
2021/10/25 01:44:17;;;;;;;13.68;9.35;;;;;;;-142.75;100.00;77779.13;5005411;28;20028;-68
2021/10/25 01:46:43;;;;;;;15.13;9.70;;;;;;;-142.75;100.00;77771.25;5011613;28;20084;-68
2021/10/25 01:49:08;;;;;;;15.25;9.65;;;;;;;-142.75;100.00;77771.25;5010524;28;20018;-69
2021/10/25 01:51:35;;;;;;;16.17;9.30;;;;;;;-142.75;100.00;77767.31;5011616;28;20044;-67
2021/10/25 01:54:00;;;;;;;15.07;9.23;;;;;;;-142.75;100.00;77769.28;5011156;28;20108;-67
2021/10/25 01:56:26;;;;;;;15.02;9.32;;;;;;;-142.75;100.00;77763.38;5011421;28;20117;-67
2021/10/25 01:58:51;;;;;;;17.13;9.38;;;;;;;-142.75;100.00;77755.50;5011525;28;20048;-68
2021/10/25 02:01:17;;;;;;;16.40;9.37;;;;;;;-142.75;100.00;77743.69;5011619;28;20091;-68
2021/10/25 02:03:43;;;;;;;14.25;9.35;;;;;;;-142.75;100.00;77745.66;5010008;28;20036;-67
2021/10/25 02:06:08;;;;;;;14.98;9.45;;;;;;;-142.75;100.00;77741.72;5011384;28;20033;-68
2021/10/25 02:08:33;;;;;;;16.35;9.80;;;;;;;-142.75;100.00;77731.88;5011143;28;20037;-68
2021/10/25 02:10:59;;;;;;;15.57;9.88;;;;;;;-142.75;100.00;77733.84;5011691;28;20113;-67
2021/10/25 02:13:24;;;;;;;16.98;9.32;;;;;;;-142.75;100.00;77729.88;5010915;28;20033;-68
2021/10/25 02:15:50;;;;;;;14.35;9.15;;;;;;;-142.75;100.00;77727.94;4996973;28;20030;-67
2021/10/25 02:18:16;;;;;;;14.77;8.88;;;;;;;-142.75;100.00;77722.00;4991538;28;20023;-67
2021/10/25 02:20:43;;;;;;;16.77;9.37;;;;;;;-142.75;100.00;77723.97;4990320;28;20046;-67
2021/10/25 02:23:09;;;;;;;13.70;9.20;;;;;;;-142.75;100.00;77716.09;4991396;28;20149;-68
2021/10/25 02:25:35;;;;;;;17.07;9.43;;;;;;;-142.75;100.00;77723.97;4991047;28;20022;-67
2021/10/25 02:28:02;;;;;;;14.55;9.07;;;;;;;-142.75;100.00;77710.19;4991174;28;20385;-68
2021/10/25 02:30:28;;;;;;;15.93;8.93;;;;;;;-142.75;100.00;77704.28;4991451;28;20084;-67
2021/10/25 02:32:53;;;;;;;13.25;8.82;;;;;;;-142.75;100.00;77700.34;4991353;28;20030;-68
2021/10/25 02:35:18;;;;;;;13.50;8.93;;;;;;;-142.75;100.00;77702.31;4991102;28;20054;-67
2021/10/25 02:37:44;;;;;;;16.27;9.10;;;;;;;-142.75;100.00;77698.38;4991450;28;20057;-67
2021/10/25 02:40:10;;;;;;;15.80;9.45;;;;;;;-142.75;100.00;77692.47;4989826;28;20050;-68
2021/10/25 02:42:35;;;;;;;14.10;9.80;;;;;;;-142.75;100.00;77688.53;4990593;28;20030;-68
2021/10/25 02:45:03;;;;;;;13.23;8.98;;;;;;;-142.75;100.00;77680.66;4990799;28;20662;-67
2021/10/25 02:47:28;;;;;;;18.23;9.32;;;;;;;-142.75;100.00;77682.63;4990881;28;20034;-68
2021/10/25 02:49:54;;;;;;;15.50;9.60;;;;;;;-142.75;100.00;77672.78;4991118;28;20391;-67
2021/10/25 02:52:19;;;;;;;13.07;9.20;;;;;;;-142.75;100.00;77674.75;4991032;28;20277;-67
2021/10/25 02:54:44;;;;;;;14.30;8.48;;;;;;;-142.75;100.00;77668.84;5005306;28;20026;-68
2021/10/25 02:57:10;;;;;;;17.15;9.45;;;;;;;-142.75;100.00;77672.78;4991229;28;20023;-68
2021/10/25 02:59:35;;;;;;;16.83;9.23;;;;;;;-142.75;100.00;77674.75;5005956;28;20025;-68
2021/10/25 03:02:00;;;;;;;14.57;9.18;;;;;;;-142.75;100.00;77674.75;4990980;28;20128;-68
2021/10/25 03:04:26;;;;;;;14.75;9.32;;;;;;;-142.75;100.00;77676.72;4989224;28;20389;-68
2021/10/25 03:06:51;;;;;;;16.33;9.57;;;;;;;-142.75;100.00;77672.78;4990896;28;20037;-67
2021/10/25 03:09:16;;;;;;;18.95;10.55;;;;;;;-142.75;100.00;77668.84;5005897;28;20023;-68
2021/10/25 03:11:42;;;;;;;13.33;9.90;;;;;;;-142.75;100.00;77668.84;4991238;28;20460;-69
2021/10/25 03:14:07;;;;;;;16.05;9.65;;;;;;;-142.75;100.00;77664.91;4990451;28;20033;-68
2021/10/25 03:16:33;;;;;;;15.63;9.98;;;;;;;-142.75;100.00;77672.78;4990698;28;20504;-68
2021/10/25 03:18:58;;;;;;;17.55;10.65;;;;;;;-142.75;100.00;77672.78;5003230;28;20018;-68
2021/10/25 03:21:23;;;;;;;15.27;9.88;;;;;;;-142.75;100.00;77672.78;5009035;28;20026;-67
2021/10/25 03:23:49;;;;;;;16.20;10.55;;;;;;;-142.75;100.00;77676.72;5009916;28;20395;-68
2021/10/25 03:26:16;;;;;;;;;;;;;;;-142.75;100.00;77672.78;5010687;28;20025;-68
2021/10/25 03:28:42;;;;;;;17.73;9.48;;;;;;;-142.75;100.00;77660.97;5008714;28;20271;-68
2021/10/25 03:31:08;;;;;;;;;;;;;;;-142.75;100.00;77670.81;5009532;28;20030;-69
2021/10/25 03:33:34;;;;;;;17.55;10.10;;;;;;;-142.75;100.00;77659.00;5009931;28;19914;-68
2021/10/25 03:36:02;;;;;;;15.57;10.50;;;;;;;-142.75;100.00;77666.88;5010041;28;20029;-68
2021/10/25 03:38:30;;;;;;;20.98;11.40;;;;;;;-142.75;100.00;77662.94;5008922;28;20024;-69
2021/10/25 03:40:55;;;;;;;17.45;11.05;;;;;;;-142.75;100.00;77659.00;5009318;28;20018;-68
2021/10/25 03:43:24;;;;;;;18.23;11.07;;;;;;;-142.75;100.00;77674.75;5010325;28;20018;-68
2021/10/25 03:45:54;;;;;;;19.65;11.70;;;;;;;-142.75;100.00;77666.88;5009801;28;20538;-68
2021/10/25 03:50:46;;;;;;;20.70;12.38;;;;;;;-142.75;100.00;77678.69;5010008;28;20034;-68
2021/10/25 03:55:50;;;;;;;20.80;13.70;;;;;;;-142.75;100.00;77684.59;5009897;28;20484;-68
2021/10/25 04:01:17;;;;;;;20.15;13.18;;;;;;;-142.75;100.00;77676.72;5009731;28;20033;-67
2021/10/25 04:28:17;;;;;;;30.23;18.08;;;;;;;-142.75;100.00;77704.28;5000602;28;20492;-68
2021/10/25 04:30:42;;;;;;;29.30;19.10;;;;;;;-142.75;100.00;77696.41;5002933;28;20076;-67
2021/10/25 04:33:08;;;;;;;28.48;19.33;;;;;;;-142.75;100.00;77686.56;5012058;28;20407;-68
2021/10/25 04:35:34;;;;;;;28.45;20.23;;;;;;;-142.75;100.00;77686.56;5012882;28;20440;-68
2021/10/25 04:37:59;;;;;;;32.92;21.95;;;;;;;-142.75;100.00;77684.59;5013149;28;20030;-68
2021/10/25 04:40:25;;;;;;;30.55;21.15;;;;;;;-142.75;100.00;77680.66;5013082;28;20148;-68
2021/10/25 04:42:51;;;;;;;32.20;21.88;;;;;;;-142.75;100.00;77674.75;5028690;28;20395;-67
2021/10/25 04:45:18;;;;;;;35.22;22.90;;;;;;;-142.75;100.00;77676.72;5012755;28;20511;-68
2021/10/25 04:47:43;;;;;;;30.73;23.20;;;;;;;-142.75;100.00;77666.88;5011753;28;20080;-68
2021/10/25 04:50:09;;;;;;;37.47;23.95;;;;;;;-142.75;100.00;77668.84;5011474;28;20065;-68
2021/10/25 04:52:34;;;;;;;31.45;22.55;;;;;;;-142.75;100.00;77666.88;5028132;28;20038;-68
2021/10/25 04:54:59;;;;;;;33.53;24.00;;;;;;;-142.75;100.00;77660.97;5012289;28;20471;-68
2021/10/25 04:57:25;;;;;;;34.92;25.60;;;;;;;-142.75;100.00;77651.13;5011665;28;20326;-69
2021/10/25 04:59:50;;;;;;;40.85;26.33;;;;;;;-142.75;100.00;77651.13;5012493;28;20026;-69
2021/10/25 05:02:16;;;;;;;38.78;25.98;;;;;;;-142.75;100.00;77659.00;5012591;28;20029;-68
2021/10/25 05:04:41;;;;;;;36.92;25.50;;;;;;;-142.75;100.00;77647.19;5012213;28;20029;-67
2021/10/25 05:07:07;;;;;;;33.35;25.02;;;;;;;-142.75;100.00;77647.19;5011180;28;20439;-69
2021/10/25 05:09:33;;;;;;;33.67;24.05;;;;;;;-142.75;100.00;77655.06;5027794;28;20040;-67
2021/10/25 05:11:58;;;;;;;;;;;;;;;-142.75;100.00;77651.13;5013401;28;20064;-68
2021/10/25 05:14:23;;;;;;;37.23;23.57;;;;;;;-142.75;100.00;77649.16;5010356;28;19957;-67
2021/10/25 05:16:49;;;;;;;32.05;23.10;;;;;;;-142.75;100.00;77651.13;5010607;28;20026;-68
2021/10/25 05:19:14;;;;;;;34.72;23.90;;;;;;;-142.75;100.00;77639.31;5012300;28;20045;-68
2021/10/25 05:21:39;;;;;;;35.50;24.58;;;;;;;-142.75;100.00;77641.28;5012117;28;20018;-68
2021/10/25 05:24:05;;;;;;;32.40;23.67;;;;;;;-142.75;100.00;77653.09;5011941;28;20026;-68
2021/10/25 05:26:31;;;;;;;37.80;25.70;;;;;;;-142.75;100.00;77653.09;5010801;28;20017;-68
2021/10/25 05:28:57;;;;;;;38.10;25.08;;;;;;;-142.75;100.00;77651.13;5012009;28;20022;-68
2021/10/25 05:31:23;;;;;;;;;;;;;;;-142.75;100.00;77649.16;5012658;28;20037;-68
2021/10/25 05:33:49;;;;;;;32.97;23.33;;;;;;;-142.75;100.00;77653.09;5010242;28;19921;-68
2021/10/25 05:36:14;;;;;;;35.38;24.10;;;;;;;-142.75;100.00;77662.94;4994014;28;20027;-70
2021/10/25 05:38:40;;;;;;;36.22;23.77;;;;;;;-142.75;100.00;77653.09;5007351;28;20061;-69
2021/10/25 05:41:05;;;;;;;32.75;22.38;;;;;;;-142.75;100.00;77657.03;5027611;28;20112;-69
2021/10/25 05:43:31;;;;;;;31.45;22.20;;;;;;;-142.75;100.00;77649.16;5011167;28;20105;-69
2021/10/25 05:45:57;;;;;;;31.40;22.50;;;;;;;-142.75;100.00;77643.25;5011651;28;20036;-70
2021/10/25 05:48:23;;;;;;;34.53;21.80;;;;;;;-142.75;100.00;77653.09;5026730;28;20026;-71
2021/10/25 05:50:48;;;;;;;31.60;21.20;;;;;;;-142.75;100.00;77664.91;5010663;28;20176;-68
2021/10/25 05:53:14;;;;;;;31.05;21.08;;;;;;;-142.75;100.00;77657.03;5011398;28;20017;-69
2021/10/25 05:55:41;;;;;;;;;;;;;;;-142.75;100.00;77659.00;5011969;28;20022;-68
2021/10/25 05:58:12;;;;;;;30.08;20.40;;;;;;;-142.75;100.00;77655.06;5007724;28;19968;-68
2021/10/25 06:00:40;;;;;;;33.05;21.45;;;;;;;-142.75;100.00;77645.22;5005826;28;20033;-68
2021/10/25 06:03:06;;;;;;;33.35;21.73;;;;;;;-142.75;100.00;77647.19;4990726;28;20522;-69
2021/10/25 06:05:32;;;;;;;27.80;20.58;;;;;;;-142.75;100.00;77635.38;4990841;28;20565;-70
2021/10/25 06:07:58;;;;;;;31.95;20.95;;;;;;;-142.75;100.00;77627.50;4990712;28;20026;-68
2021/10/25 06:10:30;;;;;;;30.90;20.25;;;;;;;-142.75;100.00;77629.47;4990903;28;20089;-68
2021/10/25 06:13:00;;;;;;;29.13;20.27;;;;;;;-142.75;100.00;77635.38;4991379;28;20026;-68
2021/10/25 06:15:30;;;;;;;33.50;20.85;;;;;;;-142.75;100.00;77625.53;4990611;28;20022;-69
2021/10/25 06:17:56;;;;;;;28.60;20.80;;;;;;;-142.75;100.00;77627.50;4990696;28;20065;-67
2021/10/25 06:20:25;;;;;;;;;;;;;;;-142.75;100.00;77633.41;4989895;28;20113;-68
2021/10/25 06:22:51;;;;;;;30.27;22.02;;;;;;;-142.75;100.00;77627.50;5005834;28;20291;-69
2021/10/25 06:25:17;;;;;;;32.03;22.20;;;;;;;-142.75;100.00;77629.47;4990275;28;20029;-68
2021/10/25 06:27:44;;;;;;;32.53;22.58;;;;;;;-142.75;100.00;77635.38;4989606;28;20031;-69
2021/10/25 06:30:10;;;;;;;30.33;21.15;;;;;;;-142.75;100.00;77641.28;4990069;28;20404;-68
2021/10/25 06:32:36;;;;;;;34.22;21.13;;;;;;;-142.75;100.00;77653.09;4989056;28;20053;-69
2021/10/25 06:35:04;;;;;;;27.50;18.90;;;;;;;-142.75;100.00;77657.03;4990183;28;20081;-68
2021/10/25 06:38:31;;;;;;;27.73;19.60;;;;;;;-142.75;100.00;77653.09;4990491;28;20071;-69
2021/10/25 06:40:27;;;;;;;27.10;18.25;;;;;;;-142.75;100.00;77660.97;4980913;28;20563;-68
2021/10/25 06:42:52;;;;;;;27.23;19.25;;;;;;;-142.75;100.00;77643.25;4995145;28;20109;-69
2021/10/25 06:45:22;;;;;;;30.90;20.10;;;;;;;-142.75;100.00;77660.97;5009640;28;20137;-68
2021/10/25 06:47:49;;;;;;;26.52;19.58;;;;;;;-142.75;100.00;77668.84;5006993;28;20033;-68
2021/10/25 06:50:16;;;;;;;28.27;20.35;;;;;;;-142.75;100.00;77659.00;4990258;28;20417;-68
2021/10/25 06:52:42;;;;;;;34.00;21.95;;;;;;;-142.75;100.00;77666.88;4999980;28;20104;-68
2021/10/25 06:55:08;;;;;;;34.17;21.58;;;;;;;-142.75;100.00;77649.16;5024582;28;20064;-68
2021/10/25 06:57:34;;;;;;;32.67;22.38;;;;;;;-142.75;100.00;77657.03;4990486;28;20469;-69
2021/10/25 07:00:00;;;;;;;34.47;22.70;;;;;;;-142.75;100.00;77653.09;5000331;28;20022;-68
2021/10/25 07:02:26;;;;;;;33.75;23.15;;;;;;;-142.75;100.00;77649.16;5009665;28;20033;-70
2021/10/25 07:04:51;;;;;;;33.03;20.90;;;;;;;-142.75;100.00;77657.03;4991725;28;20018;-68
2021/10/25 07:07:17;;;;;;;33.30;21.30;;;;;;;-142.75;100.00;77668.84;4987367;28;20023;-68
2021/10/25 07:09:43;;;;;;;;;;;;;;;-142.75;100.00;77655.06;4987624;28;20073;-68
2021/10/25 07:12:09;;;;;;;32.00;22.17;;;;;;;-142.75;100.00;77651.13;4989134;28;20172;-69
2021/10/25 07:14:37;;;;;;;38.28;24.85;;;;;;;-142.75;100.00;77643.25;4988651;28;20030;-68
2021/10/25 07:17:12;;;;;;;37.58;24.63;;;;;;;-142.75;100.00;77660.97;5003564;28;20034;-68
2021/10/25 07:20:10;;;;;;;37.08;25.02;;;;;;;-142.75;100.00;77641.28;5024770;28;20545;-69
2021/10/25 08:03:31;;;;;;;40.20;22.90;;;;;;;-142.75;100.00;77623.56;4988009;28;20117;-68
2021/10/25 08:06:07;;;;;;;31.48;21.30;;;;;;;-142.75;100.00;77617.66;4992635;28;20066;-67
2021/10/25 08:11:06;;;;;;;29.35;21.52;;;;;;;-142.75;100.00;77605.84;5012891;28;20113;-68
2021/10/25 08:13:36;;;;;;;32.53;21.38;;;;;;;-142.75;100.00;77617.66;5012891;28;20026;-66
2021/10/25 08:16:23;;;;;;;32.97;21.38;;;;;;;-142.75;100.00;77607.81;5010555;28;20077;-67
2021/10/25 08:21:17;;;;;;;28.83;19.88;;;;;;;-142.75;100.00;77594.03;5012900;28;20038;-65
2021/10/25 08:23:44;;;;;;;25.50;18.52;;;;;;;-142.75;100.00;77552.69;5012290;28;20034;-69
2021/10/25 08:26:10;;;;;;;27.95;19.20;;;;;;;-142.75;100.00;77552.69;5012490;28;20041;-72
2021/10/25 08:28:36;;;;;;;24.75;18.58;;;;;;;-142.75;100.00;77550.72;5012244;28;20030;-71
2021/10/25 08:31:02;;;;;;;28.77;19.00;;;;;;;-142.75;100.00;77542.84;5010510;28;20072;-68
2021/10/25 08:41:20;;;;;;;27.40;17.85;;;;;;;-142.75;100.00;77597.97;4993213;28;20040;-68
2021/10/25 08:43:47;;;;;;;25.35;18.17;;;;;;;-142.75;100.00;77576.31;4992393;28;20499;-68
2021/10/25 08:46:17;;;;;;;28.10;19.45;;;;;;;-142.75;100.00;77574.34;4992092;28;20030;-68
2021/10/25 08:48:43;;;;;;;26.73;19.23;;;;;;;-142.75;100.00;77566.47;4992652;28;20029;-67
2021/10/25 08:51:09;;;;;;;28.17;18.77;;;;;;;-142.75;100.00;77578.28;4991998;28;20026;-68
2021/10/25 08:53:34;;;;;;;28.95;19.70;;;;;;;-142.75;100.00;77564.50;5011455;28;20455;-67
2021/10/25 08:56:00;;;;;;;28.50;20.00;;;;;;;-142.75;100.00;77564.50;5000095;28;20022;-69
2021/10/25 08:58:25;;;;;;;33.53;20.83;;;;;;;-142.75;100.00;77562.53;4992668;28;20551;-68
2021/10/25 09:00:52;;;;;;;28.15;18.52;;;;;;;-142.75;100.00;77558.59;4993075;28;20412;-68
2021/10/25 09:03:20;;;;;;;31.30;20.98;;;;;;;-142.75;100.00;77558.59;5006865;28;20285;-68
2021/10/25 09:05:57;;;;;;;32.70;20.88;;;;;;;-142.75;100.00;77562.53;4996017;28;20104;-68
2021/10/25 09:08:23;;;;;;;30.15;19.60;;;;;;;-142.75;100.00;77562.53;5026705;28;20050;-69
2021/10/25 09:10:49;;;;;;;29.00;20.75;;;;;;;-142.75;100.00;77566.47;5010656;28;20026;-70
2021/10/25 09:13:17;;;;;;;32.42;20.58;;;;;;;-142.75;100.00;77556.63;5026915;28;20030;-69
2021/10/25 09:15:50;;;;;;;31.60;21.45;;;;;;;-142.75;100.00;77556.63;5011050;28;20022;-68
2021/10/25 09:18:21;;;;;;;34.80;23.17;;;;;;;-142.75;100.00;77544.81;5011679;28;20018;-68
2021/10/25 09:21:02;;;;;;;32.28;22.83;;;;;;;-142.75;100.00;77542.84;5011666;28;20026;-68
2021/10/25 09:23:32;;;;;;;33.25;21.58;;;;;;;-142.75;100.00;77544.81;5011328;28;20514;-68
2021/10/25 09:26:03;;;;;;;38.10;22.95;;;;;;;-142.75;100.00;77556.63;4999867;28;20019;-69
2021/10/25 09:28:35;;;;;;;36.25;23.27;;;;;;;-142.75;100.00;77542.84;4991684;28;20054;-68
2021/10/25 09:31:04;;;;;;;38.83;23.65;;;;;;;-142.75;100.00;77546.78;4990501;28;20080;-69
2021/10/25 09:33:36;;;;;;;37.78;24.45;;;;;;;-142.75;100.00;77542.84;4993304;28;20109;-68
2021/10/25 09:36:05;;;;;;;35.45;25.45;;;;;;;-142.75;100.00;77534.97;4991746;28;20040;-68
2021/10/25 09:38:56;;;;;;;40.22;25.08;;;;;;;-142.75;100.00;77531.03;4990335;28;20109;-69
2021/10/25 09:49:37;;;;;;;43.38;27.55;;;;;;;-142.75;100.00;77503.47;5011401;28;20038;-68
2021/10/25 09:52:04;;;;;;;33.63;22.80;;;;;;;-142.75;100.00;77485.75;5029766;28;20022;-68
2021/10/25 09:54:33;;;;;;;41.42;28.13;;;;;;;-142.75;100.00;77503.47;5008083;28;20034;-68
2021/10/25 09:57:05;;;;;;;42.45;27.02;;;;;;;-142.75;100.00;77503.47;4990985;28;20041;-69
2021/10/25 09:59:52;;;;;;;45.40;27.35;;;;;;;-142.75;100.00;77503.47;4991137;28;20057;-68
2021/10/25 10:02:21;;;;;;;38.25;27.77;;;;;;;-142.75;100.00;77501.50;4990839;28;20042;-68
2021/10/25 10:04:49;;;;;;;40.00;28.40;;;;;;;-142.75;100.00;77493.63;4991022;28;20388;-69
2021/10/25 10:07:16;;;;;;;45.50;28.35;;;;;;;-142.75;100.00;77477.88;4990780;28;20030;-68
2021/10/25 10:09:44;;;;;;;42.13;28.88;;;;;;;-142.75;100.00;77464.09;5006040;28;20113;-68
2021/10/25 10:12:15;;;;;;;40.25;27.58;;;;;;;-142.75;100.00;77477.88;4990628;28;20105;-68
2021/10/25 10:14:40;;;;;;;49.55;29.45;;;;;;;-142.75;100.00;77466.03;4990618;28;20026;-68
2021/10/25 10:17:06;;;;;;;45.55;27.92;;;;;;;-142.75;100.00;77489.69;4989509;28;20026;-69
2021/10/25 10:19:32;;;;;;;48.70;28.05;;;;;;;-142.75;100.00;77481.81;5005921;28;20049;-69
2021/10/25 10:22:03;;;;;;;47.17;29.80;;;;;;;-142.75;100.00;77475.91;4989273;28;20487;-68
2021/10/25 10:24:34;;;;;;;49.08;28.48;;;;;;;-142.75;100.00;77481.81;5004651;28;20538;-68
2021/10/25 10:27:04;;;;;;;42.97;26.77;;;;;;;-142.75;100.00;77485.75;4990426;28;20030;-68
2021/10/25 10:29:36;;;;;;;54.70;37.80;;;;;;;-142.75;100.00;77470.00;4989224;28;20034;-68
2021/10/25 10:32:05;;;;;;;45.72;29.88;;;;;;;-142.75;100.00;77468.03;4990541;28;20031;-68
2021/10/25 10:34:39;;;;;;;43.22;27.05;;;;;;;-142.75;100.00;77456.22;4990038;28;20456;-69
2021/10/25 10:37:15;;;;;;;47.08;28.45;;;;;;;-142.75;100.00;77452.25;4990480;28;20022;-68
2021/10/25 10:39:40;;;;;;;46.60;26.75;;;;;;;-142.75;100.00;77462.13;4988953;28;20431;-68
2021/10/25 10:42:06;;;;;;;46.95;28.48;;;;;;;-142.75;100.00;77450.28;4990407;28;20022;-69
2021/10/25 10:44:32;;;;;;;45.83;28.70;;;;;;;-142.75;100.00;77440.44;4989727;28;20113;-69
2021/10/25 10:47:07;;;;;;;;;;;;;;;-142.75;100.00;77436.50;4990797;28;20084;-68
2021/10/25 10:49:40;;;;;;;49.47;27.67;;;;;;;-142.75;100.00;77430.59;4990532;28;19922;-67
2021/10/25 10:55:04;;;;;;;45.20;25.95;;;;;;;-142.75;100.00;77414.84;5010055;28;20424;-71
2021/10/25 11:00:49;;;;;;;48.42;27.75;;;;;;;-142.75;100.00;77405.00;4991063;28;20121;-68
2021/10/25 11:03:25;;;;;;;50.42;28.25;;;;;;;-142.75;100.00;77420.75;4989110;28;20076;-68
2021/10/25 11:06:09;;;;;;;54.38;29.25;;;;;;;-142.75;100.00;77406.97;4996574;28;20496;-68
2021/10/25 11:08:43;;;;;;;51.80;29.75;;;;;;;-142.75;100.00;77412.88;4990110;28;20064;-69
2021/10/25 11:11:16;;;;;;;50.72;30.33;;;;;;;-142.75;100.00;77410.91;4989933;28;20121;-69
2021/10/25 11:13:47;;;;;;;47.65;29.77;;;;;;;-142.75;100.00;77393.19;5023779;28;20033;-68
2021/10/25 11:16:27;;;;;;;51.47;30.55;;;;;;;-142.75;100.00;77399.09;5009193;28;20052;-69
2021/10/25 11:18:55;;;;;;;54.40;30.95;;;;;;;-142.75;100.00;77391.22;5008338;28;20018;-69
2021/10/25 11:21:28;;;;;;;53.30;30.13;;;;;;;-142.75;100.00;77369.56;5008057;28;20076;-68
2021/10/25 11:24:05;;;;;;;47.88;29.35;;;;;;;-142.75;100.00;77377.44;5009106;28;20079;-68
2021/10/25 11:26:31;;;;;;;;;;;;;;;-142.75;100.00;77369.56;5008145;28;20033;-68
2021/10/25 11:29:08;;;;;;;56.28;30.10;;;;;;;-142.75;100.00;77365.63;5009395;28;19913;-69
2021/10/25 11:31:37;;;;;;;48.58;30.95;;;;;;;-142.75;100.00;77373.50;5009658;28;20037;-68
2021/10/25 11:34:28;;;;;;;49.53;30.98;;;;;;;-142.75;100.00;77377.44;5024307;28;20049;-69
2021/10/25 11:37:02;;;;;;;48.05;29.75;;;;;;;-142.75;100.00;77389.25;5009320;28;20033;-68
2021/10/25 11:39:35;;;;;;;52.47;29.55;;;;;;;-142.75;100.00;77379.41;5009467;28;20014;-68
2021/10/25 11:42:01;;;;;;;53.03;31.73;;;;;;;-142.75;100.00;77371.53;4997431;28;20026;-71
2021/10/25 11:44:30;;;;;;;51.22;32.25;;;;;;;-142.75;100.00;77361.69;4987153;28;20725;-68
2021/10/25 11:46:56;;;;;;;55.53;30.95;;;;;;;-142.75;100.00;77373.50;4989793;28;20022;-69
2021/10/25 11:49:25;;;;;;;53.20;31.67;;;;;;;-142.75;100.00;77373.50;5007065;28;20116;-68
2021/10/25 11:51:53;;;;;;;54.80;36.45;;;;;;;-142.75;100.00;77369.56;5009507;28;20030;-68
2021/10/25 11:54:18;;;;;;;65.72;39.78;;;;;;;-142.75;100.00;77375.47;4992382;28;20105;-72
2021/10/25 11:56:53;;;;;;;49.85;33.58;;;;;;;-142.75;100.00;77373.50;4998049;28;20157;-69
2021/10/25 11:59:20;;;;;;;64.15;38.13;;;;;;;-142.75;100.00;77375.47;5009485;28;20017;-69
2021/10/25 12:01:46;;;;;;;56.22;33.35;;;;;;;-142.75;100.00;77383.34;5008214;28;20113;-69
2021/10/25 12:04:13;;;;;;;56.40;34.80;;;;;;;-142.75;100.00;77385.31;5008145;28;20172;-69
2021/10/25 12:06:38;;;;;;;58.33;33.92;;;;;;;-142.75;100.00;77379.41;4990089;28;20026;-69
2021/10/25 12:09:06;;;;;;;58.85;34.72;;;;;;;-142.75;100.00;77383.34;4989911;28;20041;-69
2021/10/25 12:11:49;;;;;;;57.28;37.60;;;;;;;-142.75;100.00;77375.47;4991499;28;20049;-69
2021/10/25 12:14:16;;;;;;;57.28;35.30;;;;;;;-142.75;100.00;77373.50;5024056;28;20029;-69
2021/10/25 12:16:44;;;;;;;60.78;35.40;;;;;;;-142.75;100.00;77365.63;5024572;28;20494;-69
2021/10/25 12:19:10;;;;;;;62.42;36.08;;;;;;;-142.75;100.00;77349.88;5010325;28;20026;-69
2021/10/25 12:21:35;;;;;;;58.30;38.42;;;;;;;-142.75;100.00;77351.84;5025348;28;20030;-69
2021/10/25 12:24:07;;;;;;;62.75;37.78;;;;;;;-142.75;100.00;77349.88;5009937;28;20036;-69
2021/10/25 12:26:33;;;;;;;61.15;38.30;;;;;;;-142.75;100.00;77310.50;5010773;28;20025;-69
2021/10/25 12:28:58;;;;;;;56.78;37.95;;;;;;;-142.75;100.00;77322.31;5013487;28;20052;-70
2021/10/25 12:31:26;;;;;;;58.28;37.40;;;;;;;-142.75;100.00;77284.91;5013344;28;20025;-69
2021/10/25 12:34:03;;;;;;;65.97;39.28;;;;;;;-142.75;100.00;77282.94;5012193;28;20122;-69
2021/10/25 12:36:37;;;;;;;67.68;41.20;;;;;;;-142.75;100.00;77275.06;5028645;28;20026;-69
2021/10/25 12:39:08;;;;;;;66.43;41.15;;;;;;;-142.75;100.00;77267.19;5013536;28;20498;-70
2021/10/25 12:42:04;;;;;;;62.67;38.88;;;;;;;-142.75;100.00;77275.06;5013328;28;20076;-69
2021/10/25 12:44:36;;;;;;;60.42;38.20;;;;;;;-142.75;100.00;77292.78;5013187;28;20037;-70